Flight Track Log - Related Links

Times and Time Zones

All times are in EST time to prevent confusion due to time zone crossing. See the N3077U flight status page for this flight to view local times or setup timezone preferences in your user account.

Time Position Orientation Groundspeed Altitude Reporting Facility
EST Latitude Longitude Course Direction KTS MPH feet Rate Location/Type
Thu 05:15:00 PM 32.5460 -92.3466 266° West  Level Estimated
Thu 05:16:00 PM 32.5364 -92.3974 257° West  Level FlightAware Approximate
Thu 05:17:00 PM 32.5268 -92.4481 257° West  Level FlightAware Approximate
Thu 05:18:00 PM 32.5172 -92.4987 257° West  Level FlightAware Approximate
Thu 05:19:00 PM 32.5076 -92.5494 257° West  Level FlightAware Approximate
Thu 05:20:00 PM 32.5140 -92.6008 266° West  Level Estimated
Thu 05:21:00 PM 32.5082 -92.6523 262° West  Level FlightAware Approximate
Thu 05:22:00 PM 32.5024 -92.7038 262° West  Level FlightAware Approximate
Thu 05:23:00 PM 32.4966 -92.7553 262° West  Level FlightAware Approximate
Thu 05:23:11 PM 32.4744 -92.7153 262° West 131 151 6,000  Level Fort Worth Center
Thu 05:24:00 PM 32.4908 -92.8068 262° West  Level FlightAware Approximate
Thu 05:24:11 PM 32.4617 -92.7650 253° West 168 193 6,000  Level Fort Worth Center
Thu 05:25:00 PM 32.4849 -92.8583 262° West  Level FlightAware Approximate
Thu 05:25:12 PM 32.4550 -92.8122 261° West 161 185 6,000  Level Fort Worth Center
Thu 05:26:00 PM 32.4790 -92.9097 262° West  Level FlightAware Approximate
Thu 05:26:19 PM 32.4531 -92.8764 268° West 162 186 6,000  Level Fort Worth Center
Thu 05:27:00 PM 32.4731 -92.9612 262° West  Level FlightAware Approximate
Thu 05:27:20 PM 32.4489 -92.9306 265° West 163 188 6,000  Level Fort Worth Center
Thu 05:28:00 PM 32.4672 -93.0126 262° West  Level FlightAware Approximate
Thu 05:28:20 PM 32.4422 -92.9828 261° West 163 188 6,000  Level Fort Worth Center
Thu 05:29:15 PM 32.4439 -93.0294 272° West 160 184 6,000  Level Fort Worth Center
Thu 05:30:16 PM 32.4375 -93.0839 262° West 161 185 6,000  Level Fort Worth Center
Thu 05:31:17 PM 32.4353 -93.1381 267° West 161 185 6,000  Level Fort Worth Center
Thu 05:32:17 PM 32.4286 -93.1950 262° West 160 184 6,000  Level Fort Worth Center
Thu 05:33:18 PM 32.4264 -93.2467 267° West 160 184 6,000  Level Fort Worth Center
Thu 05:34:19 PM 32.4217 -93.2986 264° West 161 185 6,000  Level Fort Worth Center
Thu 05:35:19 PM 32.4192 -93.3503 267° West 162 186 6,000  Level Fort Worth Center
Thu 05:36:20 PM 32.4147 -93.4022 264° West 161 185 6,000  Level Fort Worth Center
Thu 05:37:21 PM 32.4122 -93.4564 267° West 160 184 6,000  Level Fort Worth Center
Thu 05:38:22 PM 32.4075 -93.5108 264° West 163 188 6,000  Level Fort Worth Center
Thu 05:39:22 PM 32.4031 -93.5675 265° West 163 188 6,000  Level Fort Worth Center
Thu 05:40:23 PM 32.3983 -93.6194 264° West 162 186 6,000  Level Fort Worth Center
Thu 05:41:24 PM 32.4000 -93.6736 272° West 160 184 6,000  Level Fort Worth Center
Thu 05:42:25 PM 32.4017 -93.7250 272° West 161 185 6,000  Level Fort Worth Center
Thu 05:43:25 PM 32.4031 -93.7792 272° West 161 185 6,000  Level Fort Worth Center
Thu 05:44:26 PM 32.4025 -93.8333 269° West 164 189 6,000  Level Fort Worth Center
Thu 05:45:27 PM 32.4042 -93.8875 272° West 164 189 6,000  Level Fort Worth Center
Thu 05:46:28 PM 32.4036 -93.9439 269° West 163 188 6,000  Level Fort Worth Center
Thu 05:47:29 PM 32.4072 -93.9981 275° West 162 186 6,000  Level Fort Worth Center
Thu 05:48:30 PM 32.4064 -94.0497 269° West 161 185 6,000  Level Fort Worth Center
Thu 05:49:31 PM 32.4078 -94.1039 272° West 162 186 6,000  Level Fort Worth Center
Thu 05:51:00 PM 32.4034 -94.1768 266° West  Level FlightAware Approximate
Thu 05:58:00 PM 32.4081 -94.5217 273° West  Level FlightAware Approximate
Thu 05:59:00 PM 32.4100 -94.5709 273° West  Level FlightAware Approximate
Thu 06:00:00 PM 32.4118 -94.6202 273° West  Level FlightAware Approximate
Thu 06:01:00 PM 32.4137 -94.6694 273° West  Level FlightAware Approximate
Thu 06:02:00 PM 32.4155 -94.7186 273° West  Level FlightAware Approximate
Thu 06:03:00 PM 32.4135 -94.7675 258° West  Level FlightAware Approximate
Thu 06:04:00 PM 32.4048 -94.8157 258° West  Level FlightAware Approximate
Thu 06:05:00 PM 32.3960 -94.8638 258° West  Level FlightAware Approximate
Thu 06:06:00 PM 32.3872 -94.9120 258° West  Level FlightAware Approximate
Thu 06:07:00 PM 32.3768 -94.9596 254° West  Level FlightAware Approximate
Thu 06:07:09 PM 32.4456 -95.0306 260° West 185 213 6,000  Level Fort Worth Center
Thu 06:08:00 PM 32.3656 -95.0071 260° West  Level FlightAware Approximate
Thu 06:08:09 PM 32.4486 -95.0819 274° West 176 203 6,000  Level Fort Worth Center
Thu 06:09:00 PM 32.3582 -95.0555 260° West  Level FlightAware Approximate
Thu 06:09:09 PM 32.4558 -95.1311 280° West 170 196 6,000  Level Fort Worth Center
Thu 06:10:00 PM 32.3507 -95.1040 260° West  Level FlightAware Approximate
Thu 06:10:09 PM 32.4883 -95.2067 297° West 165 190 6,100  Level Fort Worth Center
Thu 06:11:00 PM 32.3433 -95.1524 260° West  Level FlightAware Approximate
Thu 06:11:09 PM 32.4639 -95.2344 224° Southwest 182 209 6,000  Level Fort Worth Center
Thu 06:12:09 PM 32.4711 -95.2858 279° West 177 204 6,000 -50 Level Fort Worth Center
Thu 06:13:09 PM 32.4761 -95.3447 276° West 171 197 5,900  Descending Fort Worth Center
Thu 06:14:09 PM 32.4811 -95.3892 278° West 160 184 6,000  Climbing Fort Worth Center
Thu 06:15:09 PM 32.4881 -95.4406 279° West 160 184 5,900 -50 Descending Fort Worth Center
Thu 06:16:09 PM 32.4908 -95.4897 274° West 160 184 5,900 50 Level Fort Worth Center
Thu 06:17:09 PM 32.4917 -95.5439 271° West 160 184 6,000  Climbing Fort Worth Center
Thu 06:18:09 PM 32.4989 -95.5931 280° West 160 184 5,900  Descending Fort Worth Center
Thu 06:19:09 PM 32.5058 -95.6519 278° West 160 184 6,000  Climbing Fort Worth Center
Thu 06:20:09 PM 32.5086 -95.6964 274° West 160 184 5,900 -50 Descending Fort Worth Center
Thu 06:21:09 PM 32.5136 -95.7528 276° West 160 184 5,900  Level Fort Worth Center
Thu 06:22:09 PM 32.5183 -95.7972 277° West 160 184 5,900  Level Fort Worth Center
Thu 06:23:09 PM 32.5231 -95.8561 275° West 160 184 5,900  Level Fort Worth Center
Thu 06:24:09 PM 32.5278 -95.9031 277° West 160 184 5,900  Level Fort Worth Center
Thu 06:25:09 PM 32.5328 -95.9594 276° West 160 184 5,900 50 Level Fort Worth Center
Thu 06:26:09 PM 32.5353 -96.0064 274° West 160 184 6,000  Climbing Fort Worth Center
Thu 06:27:09 PM 32.5403 -96.0631 276° West 160 184 5,900 -50 Descending Fort Worth Center
Thu 06:28:09 PM 32.5447 -96.1097 276° West 160 184 5,900  Level Fort Worth Center
Thu 06:29:09 PM 32.5494 -96.1664 276° West 160 184 5,900  Level Fort Worth Center
Thu 06:30:09 PM 32.5542 -96.2131 277° West 160 184 5,900 50 Level Fort Worth Center
Thu 06:31:09 PM 32.5589 -96.2647 276° West 160 184 6,000 50 Climbing Fort Worth Center
Thu 06:32:09 PM 32.5633 -96.3117 276° West 160 184 6,000 -300 Level Fort Worth Center
Thu 06:33:09 PM 32.5764 -96.3681 285° West 166 191 5,400 -550 Descending Fort Worth Center
Thu 06:34:09 PM 32.6144 -96.4097 317° Northwest 183 211 4,900 -250 Descending Fort Worth Center
Thu 06:35:09 PM 32.6481 -96.4561 311° West 188 216 4,900 50 Level Fort Worth Center
Thu 06:36:09 PM 32.6631 -96.5028 291° West 165 190 5,000 -450 Climbing Fort Worth Center
Thu 06:37:09 PM 32.7094 -96.5467 321° Northwest 177 204 4,000 -1,000 Descending Fort Worth Center
Thu 06:38:09 PM 32.7514 -96.5786 327° Northwest 202 232 3,000 -500 Descending Fort Worth Center
Thu 06:39:09 PM 32.7994 -96.6150 328° Northwest 192 221 3,000 -50 Level Fort Worth Center
Thu 06:40:09 PM 32.8350 -96.6322 338° Northwest 167 192 2,900 -50 Descending Fort Worth Center
Thu 06:41:09 PM 32.8811 -96.6467 345° North 155 178 2,900 45 Level Fort Worth Center
Thu 06:42:23 PM 32.9333 -96.6667 342° North 150 173 3,000 45 Climbing Dallas / Fort Worth TRACON
Thu 06:43:23 PM 32.9667 -96.7000 320° Northwest 150 173 3,000 -250 Level Dallas / Fort Worth TRACON
Thu 06:44:23 PM 32.9833 -96.7500 292° West 170 196 2,500 -500 Descending Dallas / Fort Worth TRACON
Thu 06:45:23 PM 33.0167 -96.7833 320° Northwest 182 209 2,000 -200 Descending Dallas / Fort Worth TRACON
Thu 06:46:23 PM 33.0167 -96.8333 270° West 160 184 2,100 -50 Climbing Dallas / Fort Worth TRACON
Thu 06:47:23 PM 33.0167 -96.8500 270° West 92 106 1,900 -450 Descending Dallas / Fort Worth TRACON
Thu 06:48:23 PM 33.0000 -96.8500 180° South 98 113 1,200 -700 Descending Dallas / Fort Worth TRACON
Thu 06:50:00 PM 32.9667 -96.8333 320° Northwest  Level FlightAware Approximate
Thu 06:57:00 PM 32.9686 -96.8364 320° Northwest  Level Estimated
Thu 06:58:00 PM 32.9667 -96.8333 320° Northwest  Level FlightAware Approximate

Login

Don't have an account? Register now (free) for customized features, flight alerts, and more!